sensor_id;sensor_type;location;lat;lon;timestamp;temperature;humidity
35796;DHT22;21916;52.428;13.302;2022-08-19T00:00:47;20.80;99.90
35796;DHT22;21916;52.428;13.302;2022-08-19T00:03:13;20.70;99.90
35796;DHT22;21916;52.428;13.302;2022-08-19T00:05:39;20.70;99.90
35796;DHT22;21916;52.428;13.302;2022-08-19T00:08:07;20.70;99.90
35796;DHT22;21916;52.428;13.302;2022-08-19T00:10:33;20.60;99.90
35796;DHT22;21916;52.428;13.302;2022-08-19T00:12:59;20.60;99.90
35796;DHT22;21916;52.428;13.302;2022-08-19T00:15:25;20.60;99.90
35796;DHT22;21916;52.428;13.302;2022-08-19T00:17:51;20.60;99.90
35796;DHT22;21916;52.428;13.302;2022-08-19T00:20:19;20.60;99.90
35796;DHT22;21916;52.428;13.302;2022-08-19T00:22:46;20.60;99.90
35796;DHT22;21916;52.428;13.302;2022-08-19T00:25:14;20.60;99.90
35796;DHT22;21916;52.428;13.302;2022-08-19T00:27:40;20.70;99.90
35796;DHT22;21916;52.428;13.302;2022-08-19T00:30:07;20.80;99.90
35796;DHT22;21916;52.428;13.302;2022-08-19T00:32:33;20.80;99.90
35796;DHT22;21916;52.428;13.302;2022-08-19T00:35:00;20.70;99.90
35796;DHT22;21916;52.428;13.302;2022-08-19T00:37:26;20.70;99.90
35796;DHT22;21916;52.428;13.302;2022-08-19T00:39:53;20.70;99.90
35796;DHT22;21916;52.428;13.302;2022-08-19T00:42:21;20.80;99.90
35796;DHT22;21916;52.428;13.302;2022-08-19T00:44:47;20.80;99.90
35796;DHT22;21916;52.428;13.302;2022-08-19T00:47:13;20.80;99.90
35796;DHT22;21916;52.428;13.302;2022-08-19T00:49:48;20.80;99.90
35796;DHT22;21916;52.428;13.302;2022-08-19T00:52:29;20.80;99.90
35796;DHT22;21916;52.428;13.302;2022-08-19T00:54:58;20.80;99.90
35796;DHT22;21916;52.428;13.302;2022-08-19T00:57:35;20.80;99.90
35796;DHT22;21916;52.428;13.302;2022-08-19T01:00:08;20.80;99.90
35796;DHT22;21916;52.428;13.302;2022-08-19T01:02:37;20.80;99.90
35796;DHT22;21916;52.428;13.302;2022-08-19T01:05:07;20.80;99.90
35796;DHT22;21916;52.428;13.302;2022-08-19T01:07:35;20.80;99.90
35796;DHT22;21916;52.428;13.302;2022-08-19T01:10:04;20.90;99.90
35796;DHT22;21916;52.428;13.302;2022-08-19T01:12:31;20.90;99.90
35796;DHT22;21916;52.428;13.302;2022-08-19T01:14:57;20.90;99.90
35796;DHT22;21916;52.428;13.302;2022-08-19T01:17:24;20.90;99.90
35796;DHT22;21916;52.428;13.302;2022-08-19T01:19:50;20.90;99.90
35796;DHT22;21916;52.428;13.302;2022-08-19T01:24:49;20.90;99.90
35796;DHT22;21916;52.428;13.302;2022-08-19T01:27:16;20.80;99.90
35796;DHT22;21916;52.428;13.302;2022-08-19T01:29:43;20.90;99.90
35796;DHT22;21916;52.428;13.302;2022-08-19T01:32:13;20.90;99.90
35796;DHT22;21916;52.428;13.302;2022-08-19T01:34:40;20.90;99.90
35796;DHT22;21916;52.428;13.302;2022-08-19T01:37:08;20.90;99.90
35796;DHT22;21916;52.428;13.302;2022-08-19T01:39:40;21.00;99.90
35796;DHT22;21916;52.428;13.302;2022-08-19T01:42:08;20.80;99.90
35796;DHT22;21916;52.428;13.302;2022-08-19T01:44:38;20.90;99.90
35796;DHT22;21916;52.428;13.302;2022-08-19T01:47:06;20.90;99.90
35796;DHT22;21916;52.428;13.302;2022-08-19T01:49:33;20.80;99.90
35796;DHT22;21916;52.428;13.302;2022-08-19T01:52:00;20.70;99.90
35796;DHT22;21916;52.428;13.302;2022-08-19T01:54:26;20.70;99.90
35796;DHT22;21916;52.428;13.302;2022-08-19T01:57:02;20.50;99.90
35796;DHT22;21916;52.428;13.302;2022-08-19T01:59:30;20.50;99.90
35796;DHT22;21916;52.428;13.302;2022-08-19T02:01:57;20.50;99.90
35796;DHT22;21916;52.428;13.302;2022-08-19T02:04:23;20.50;99.90
35796;DHT22;21916;52.428;13.302;2022-08-19T02:06:51;20.50;99.90
35796;DHT22;21916;52.428;13.302;2022-08-19T02:09:17;20.40;99.90
35796;DHT22;21916;52.428;13.302;2022-08-19T02:11:43;20.30;99.90
35796;DHT22;21916;52.428;13.302;2022-08-19T02:14:08;20.20;99.90
35796;DHT22;21916;52.428;13.302;2022-08-19T02:16:36;20.20;99.90
35796;DHT22;21916;52.428;13.302;2022-08-19T02:19:03;20.20;99.90
35796;DHT22;21916;52.428;13.302;2022-08-19T02:21:29;20.10;99.90
35796;DHT22;21916;52.428;13.302;2022-08-19T02:23:56;20.10;99.90
35796;DHT22;21916;52.428;13.302;2022-08-19T02:26:22;20.00;99.90
35796;DHT22;21916;52.428;13.302;2022-08-19T02:28:49;20.00;99.90
35796;DHT22;21916;52.428;13.302;2022-08-19T02:31:18;19.90;99.90
35796;DHT22;21916;52.428;13.302;2022-08-19T02:33:45;20.00;99.90
35796;DHT22;21916;52.428;13.302;2022-08-19T02:36:13;20.00;99.90
35796;DHT22;21916;52.428;13.302;2022-08-19T02:38:39;19.90;99.90
35796;DHT22;21916;52.428;13.302;2022-08-19T02:41:13;19.90;99.90
35796;DHT22;21916;52.428;13.302;2022-08-19T02:43:40;19.90;99.90
35796;DHT22;21916;52.428;13.302;2022-08-19T02:48:41;20.00;99.90
35796;DHT22;21916;52.428;13.302;2022-08-19T02:51:07;20.00;99.90
35796;DHT22;21916;52.428;13.302;2022-08-19T02:53:33;19.90;99.90
35796;DHT22;21916;52.428;13.302;2022-08-19T02:55:59;19.90;99.90
35796;DHT22;21916;52.428;13.302;2022-08-19T02:58:25;19.90;99.90
35796;DHT22;21916;52.428;13.302;2022-08-19T03:00:54;20.00;99.90
35796;DHT22;21916;52.428;13.302;2022-08-19T03:03:21;20.00;99.90
35796;DHT22;21916;52.428;13.302;2022-08-19T03:05:47;20.00;99.90
35796;DHT22;21916;52.428;13.302;2022-08-19T03:08:15;20.10;99.90
35796;DHT22;21916;52.428;13.302;2022-08-19T03:10:43;20.10;99.90
35796;DHT22;21916;52.428;13.302;2022-08-19T03:13:12;20.10;99.90
35796;DHT22;21916;52.428;13.302;2022-08-19T03:15:43;20.10;99.90
35796;DHT22;21916;52.428;13.302;2022-08-19T03:18:10;20.00;99.90
35796;DHT22;21916;52.428;13.302;2022-08-19T03:20:47;19.90;99.90
35796;DHT22;21916;52.428;13.302;2022-08-19T03:23:14;19.90;99.90
35796;DHT22;21916;52.428;13.302;2022-08-19T03:25:46;20.00;99.90
35796;DHT22;21916;52.428;13.302;2022-08-19T03:28:13;20.00;99.90
35796;DHT22;21916;52.428;13.302;2022-08-19T03:30:41;20.00;99.90
35796;DHT22;21916;52.428;13.302;2022-08-19T03:33:09;20.00;99.90
35796;DHT22;21916;52.428;13.302;2022-08-19T03:35:35;20.00;99.90
35796;DHT22;21916;52.428;13.302;2022-08-19T03:38:05;20.00;99.90
35796;DHT22;21916;52.428;13.302;2022-08-19T03:40:35;19.90;99.90
35796;DHT22;21916;52.428;13.302;2022-08-19T03:43:02;19.90;99.90
35796;DHT22;21916;52.428;13.302;2022-08-19T03:45:28;19.90;99.90
35796;DHT22;21916;52.428;13.302;2022-08-19T03:47:55;19.90;99.90
35796;DHT22;21916;52.428;13.302;2022-08-19T03:50:21;19.90;99.90
35796;DHT22;21916;52.428;13.302;2022-08-19T03:52:51;19.90;99.90
35796;DHT22;21916;52.428;13.302;2022-08-19T03:55:18;19.90;99.90
35796;DHT22;21916;52.428;13.302;2022-08-19T03:57:44;20.00;99.90
35796;DHT22;21916;52.428;13.302;2022-08-19T04:00:12;20.00;99.90
35796;DHT22;21916;52.428;13.302;2022-08-19T04:02:41;20.00;99.90
35796;DHT22;21916;52.428;13.302;2022-08-19T04:05:07;20.00;99.90
35796;DHT22;21916;52.428;13.302;2022-08-19T04:07:33;20.00;99.90
35796;DHT22;21916;52.428;13.302;2022-08-19T04:09:59;20.00;99.90
35796;DHT22;21916;52.428;13.302;2022-08-19T04:12:25;20.10;99.90
35796;DHT22;21916;52.428;13.302;2022-08-19T04:14:51;20.10;99.90
35796;DHT22;21916;52.428;13.302;2022-08-19T04:17:17;20.10;99.90
35796;DHT22;21916;52.428;13.302;2022-08-19T04:19:43;20.10;99.90
35796;DHT22;21916;52.428;13.302;2022-08-19T04:22:10;20.10;99.90
35796;DHT22;21916;52.428;13.302;2022-08-19T04:24:37;20.20;99.90
35796;DHT22;21916;52.428;13.302;2022-08-19T04:27:03;20.10;99.90
35796;DHT22;21916;52.428;13.302;2022-08-19T04:29:31;20.10;99.90
35796;DHT22;21916;52.428;13.302;2022-08-19T04:31:58;20.10;99.90
35796;DHT22;21916;52.428;13.302;2022-08-19T04:34:26;20.10;99.90
35796;DHT22;21916;52.428;13.302;2022-08-19T04:36:55;20.20;99.90
35796;DHT22;21916;52.428;13.302;2022-08-19T04:39:24;20.20;99.90
35796;DHT22;21916;52.428;13.302;2022-08-19T04:42:16;20.20;99.90
35796;DHT22;21916;52.428;13.302;2022-08-19T04:45:01;20.20;99.90
35796;DHT22;21916;52.428;13.302;2022-08-19T04:47:29;20.20;99.90
35796;DHT22;21916;52.428;13.302;2022-08-19T04:49:56;20.20;99.90
35796;DHT22;21916;52.428;13.302;2022-08-19T04:52:23;20.20;99.90
35796;DHT22;21916;52.428;13.302;2022-08-19T04:54:49;20.20;99.90
35796;DHT22;21916;52.428;13.302;2022-08-19T04:57:14;20.30;99.90
35796;DHT22;21916;52.428;13.302;2022-08-19T04:59:40;20.40;99.90
35796;DHT22;21916;52.428;13.302;2022-08-19T05:02:09;20.50;99.90
35796;DHT22;21916;52.428;13.302;2022-08-19T05:04:35;20.60;99.90
35796;DHT22;21916;52.428;13.302;2022-08-19T05:07:05;20.70;99.90
35796;DHT22;21916;52.428;13.302;2022-08-19T05:09:31;20.80;99.90
35796;DHT22;21916;52.428;13.302;2022-08-19T05:11:57;20.80;99.90
35796;DHT22;21916;52.428;13.302;2022-08-19T05:14:23;20.80;99.90
35796;DHT22;21916;52.428;13.302;2022-08-19T05:16:49;20.90;99.90
35796;DHT22;21916;52.428;13.302;2022-08-19T05:19:15;21.00;99.90
35796;DHT22;21916;52.428;13.302;2022-08-19T05:22:00;21.20;99.90
35796;DHT22;21916;52.428;13.302;2022-08-19T05:24:44;21.20;99.90
35796;DHT22;21916;52.428;13.302;2022-08-19T05:27:10;21.30;99.90
35796;DHT22;21916;52.428;13.302;2022-08-19T05:29:36;21.50;99.90
35796;DHT22;21916;52.428;13.302;2022-08-19T05:32:04;21.60;99.90
35796;DHT22;21916;52.428;13.302;2022-08-19T05:34:31;21.60;99.90
35796;DHT22;21916;52.428;13.302;2022-08-19T05:36:59;21.70;99.90
35796;DHT22;21916;52.428;13.302;2022-08-19T05:39:29;21.70;99.90
35796;DHT22;21916;52.428;13.302;2022-08-19T05:41:59;21.70;99.90
35796;DHT22;21916;52.428;13.302;2022-08-19T05:44:27;21.70;99.90
35796;DHT22;21916;52.428;13.302;2022-08-19T05:46:57;21.70;99.90
35796;DHT22;21916;52.428;13.302;2022-08-19T05:49:24;21.70;99.90
35796;DHT22;21916;52.428;13.302;2022-08-19T05:51:51;21.80;99.90
35796;DHT22;21916;52.428;13.302;2022-08-19T05:54:18;21.90;99.90
35796;DHT22;21916;52.428;13.302;2022-08-19T05:56:45;21.80;99.90
35796;DHT22;21916;52.428;13.302;2022-08-19T05:59:15;21.90;99.90
35796;DHT22;21916;52.428;13.302;2022-08-19T06:01:44;21.80;99.90
35796;DHT22;21916;52.428;13.302;2022-08-19T06:04:12;21.80;99.90
35796;DHT22;21916;52.428;13.302;2022-08-19T06:06:41;21.80;99.90
35796;DHT22;21916;52.428;13.302;2022-08-19T06:09:07;21.90;99.90
35796;DHT22;21916;52.428;13.302;2022-08-19T06:11:41;21.80;99.90
35796;DHT22;21916;52.428;13.302;2022-08-19T06:14:15;21.90;99.90
35796;DHT22;21916;52.428;13.302;2022-08-19T06:16:42;21.90;99.90
35796;DHT22;21916;52.428;13.302;2022-08-19T06:19:14;22.00;99.90
35796;DHT22;21916;52.428;13.302;2022-08-19T06:21:43;22.10;99.90
35796;DHT22;21916;52.428;13.302;2022-08-19T06:24:12;22.00;99.90
35796;DHT22;21916;52.428;13.302;2022-08-19T06:26:40;22.10;99.90
35796;DHT22;21916;52.428;13.302;2022-08-19T06:29:08;22.30;99.90
35796;DHT22;21916;52.428;13.302;2022-08-19T06:31:35;22.30;99.90
35796;DHT22;21916;52.428;13.302;2022-08-19T06:34:04;22.50;99.90
35796;DHT22;21916;52.428;13.302;2022-08-19T06:36:39;22.50;99.90
35796;DHT22;21916;52.428;13.302;2022-08-19T06:39:27;22.40;99.90
35796;DHT22;21916;52.428;13.302;2022-08-19T06:41:56;22.20;99.90
35796;DHT22;21916;52.428;13.302;2022-08-19T06:44:24;22.20;99.90
35796;DHT22;21916;52.428;13.302;2022-08-19T06:46:52;22.10;99.90
35796;DHT22;21916;52.428;13.302;2022-08-19T06:49:18;22.10;99.90
35796;DHT22;21916;52.428;13.302;2022-08-19T06:51:46;22.20;99.90
35796;DHT22;21916;52.428;13.302;2022-08-19T06:54:14;22.30;99.90
35796;DHT22;21916;52.428;13.302;2022-08-19T06:56:40;22.40;99.90
35796;DHT22;21916;52.428;13.302;2022-08-19T06:59:10;22.30;99.90
35796;DHT22;21916;52.428;13.302;2022-08-19T07:01:41;22.30;99.90
35796;DHT22;21916;52.428;13.302;2022-08-19T07:04:08;22.30;99.90
35796;DHT22;21916;52.428;13.302;2022-08-19T07:06:35;22.40;99.90
35796;DHT22;21916;52.428;13.302;2022-08-19T07:09:07;22.50;99.90
35796;DHT22;21916;52.428;13.302;2022-08-19T07:11:33;22.70;99.90
35796;DHT22;21916;52.428;13.302;2022-08-19T07:14:00;22.60;99.90
35796;DHT22;21916;52.428;13.302;2022-08-19T07:16:26;22.80;99.90
35796;DHT22;21916;52.428;13.302;2022-08-19T07:18:53;22.90;99.90
35796;DHT22;21916;52.428;13.302;2022-08-19T07:21:25;22.90;99.90
35796;DHT22;21916;52.428;13.302;2022-08-19T07:23:56;23.00;99.90
35796;DHT22;21916;52.428;13.302;2022-08-19T07:26:25;23.10;99.90
35796;DHT22;21916;52.428;13.302;2022-08-19T07:28:52;23.00;99.90
35796;DHT22;21916;52.428;13.302;2022-08-19T07:31:22;22.80;99.90
35796;DHT22;21916;52.428;13.302;2022-08-19T07:33:50;22.90;99.90
35796;DHT22;21916;52.428;13.302;2022-08-19T07:36:19;22.90;99.90
35796;DHT22;21916;52.428;13.302;2022-08-19T07:38:47;22.90;99.90
35796;DHT22;21916;52.428;13.302;2022-08-19T07:41:17;22.90;99.90
35796;DHT22;21916;52.428;13.302;2022-08-19T07:43:43;22.80;99.90
35796;DHT22;21916;52.428;13.302;2022-08-19T07:46:10;23.00;99.90
35796;DHT22;21916;52.428;13.302;2022-08-19T07:48:37;23.00;99.90
35796;DHT22;21916;52.428;13.302;2022-08-19T07:51:05;22.90;99.90
35796;DHT22;21916;52.428;13.302;2022-08-19T07:53:34;22.80;99.90
35796;DHT22;21916;52.428;13.302;2022-08-19T07:56:01;22.80;99.90
35796;DHT22;21916;52.428;13.302;2022-08-19T07:58:32;22.70;99.90
35796;DHT22;21916;52.428;13.302;2022-08-19T08:00:59;22.60;99.90
35796;DHT22;21916;52.428;13.302;2022-08-19T08:03:25;22.50;99.90
35796;DHT22;21916;52.428;13.302;2022-08-19T08:06:11;22.50;99.90
35796;DHT22;21916;52.428;13.302;2022-08-19T08:08:56;22.50;99.90
35796;DHT22;21916;52.428;13.302;2022-08-19T08:11:44;22.50;99.90
35796;DHT22;21916;52.428;13.302;2022-08-19T08:14:16;22.50;99.90
35796;DHT22;21916;52.428;13.302;2022-08-19T08:16:42;22.50;99.90
35796;DHT22;21916;52.428;13.302;2022-08-19T08:19:09;22.50;99.90
35796;DHT22;21916;52.428;13.302;2022-08-19T08:21:35;22.50;99.90
35796;DHT22;21916;52.428;13.302;2022-08-19T08:24:01;22.40;99.90
35796;DHT22;21916;52.428;13.302;2022-08-19T08:26:27;22.40;99.90
35796;DHT22;21916;52.428;13.302;2022-08-19T08:28:53;22.50;99.90
35796;DHT22;21916;52.428;13.302;2022-08-19T08:31:19;22.50;99.90
35796;DHT22;21916;52.428;13.302;2022-08-19T08:33:46;22.50;99.90
35796;DHT22;21916;52.428;13.302;2022-08-19T08:36:13;22.60;99.90
35796;DHT22;21916;52.428;13.302;2022-08-19T08:38:41;22.80;99.90
35796;DHT22;21916;52.428;13.302;2022-08-19T08:43:58;22.90;99.90
35796;DHT22;21916;52.428;13.302;2022-08-19T08:46:38;22.60;99.90
35796;DHT22;21916;52.428;13.302;2022-08-19T08:52:02;22.40;99.90
35796;DHT22;21916;52.428;13.302;2022-08-19T08:54:33;22.40;99.90
35796;DHT22;21916;52.428;13.302;2022-08-19T08:57:00;22.40;99.90
35796;DHT22;21916;52.428;13.302;2022-08-19T08:59:35;22.40;99.90
35796;DHT22;21916;52.428;13.302;2022-08-19T09:02:03;22.30;99.90
35796;DHT22;21916;52.428;13.302;2022-08-19T09:04:29;22.30;99.90
35796;DHT22;21916;52.428;13.302;2022-08-19T09:09:46;22.40;99.90
35796;DHT22;21916;52.428;13.302;2022-08-19T09:15:03;22.20;99.90
35796;DHT22;21916;52.428;13.302;2022-08-19T09:17:32;22.20;99.90
35796;DHT22;21916;52.428;13.302;2022-08-19T09:23:00;22.30;99.90
35796;DHT22;21916;52.428;13.302;2022-08-19T09:25:26;22.30;99.90
35796;DHT22;21916;52.428;13.302;2022-08-19T09:27:54;22.30;99.90
35796;DHT22;21916;52.428;13.302;2022-08-19T09:30:27;22.30;99.90
35796;DHT22;21916;52.428;13.302;2022-08-19T09:32:55;22.40;99.90
35796;DHT22;21916;52.428;13.302;2022-08-19T09:35:22;22.40;99.90
35796;DHT22;21916;52.428;13.302;2022-08-19T09:37:49;22.50;99.90
35796;DHT22;21916;52.428;13.302;2022-08-19T09:40:16;22.40;99.90
35796;DHT22;21916;52.428;13.302;2022-08-19T09:42:44;22.40;99.90
35796;DHT22;21916;52.428;13.302;2022-08-19T09:45:12;22.50;99.90
35796;DHT22;21916;52.428;13.302;2022-08-19T09:47:38;22.60;99.90
35796;DHT22;21916;52.428;13.302;2022-08-19T09:50:07;22.60;99.90
35796;DHT22;21916;52.428;13.302;2022-08-19T09:52:34;22.70;99.90
35796;DHT22;21916;52.428;13.302;2022-08-19T09:55:10;22.60;99.90
35796;DHT22;21916;52.428;13.302;2022-08-19T09:57:36;22.70;99.90
35796;DHT22;21916;52.428;13.302;2022-08-19T10:00:07;22.80;99.90
35796;DHT22;21916;52.428;13.302;2022-08-19T10:02:34;22.60;99.90
35796;DHT22;21916;52.428;13.302;2022-08-19T10:05:00;22.50;99.90
35796;DHT22;21916;52.428;13.302;2022-08-19T10:07:44;22.50;99.90
35796;DHT22;21916;52.428;13.302;2022-08-19T10:10:10;22.50;99.90
35796;DHT22;21916;52.428;13.302;2022-08-19T10:12:37;22.50;99.90
35796;DHT22;21916;52.428;13.302;2022-08-19T10:15:06;22.40;99.90
35796;DHT22;21916;52.428;13.302;2022-08-19T10:17:33;22.40;99.90
35796;DHT22;21916;52.428;13.302;2022-08-19T10:20:01;22.50;99.90
35796;DHT22;21916;52.428;13.302;2022-08-19T10:22:29;22.70;99.90
35796;DHT22;21916;52.428;13.302;2022-08-19T10:24:54;22.90;99.90
35796;DHT22;21916;52.428;13.302;2022-08-19T10:27:21;22.90;99.90
35796;DHT22;21916;52.428;13.302;2022-08-19T10:29:47;23.20;99.90
35796;DHT22;21916;52.428;13.302;2022-08-19T10:32:13;23.50;99.90
35796;DHT22;21916;52.428;13.302;2022-08-19T10:34:39;23.70;99.90
35796;DHT22;21916;52.428;13.302;2022-08-19T10:37:05;23.60;99.90
35796;DHT22;21916;52.428;13.302;2022-08-19T10:39:33;23.30;99.90
35796;DHT22;21916;52.428;13.302;2022-08-19T10:42:05;23.30;99.90
35796;DHT22;21916;52.428;13.302;2022-08-19T10:44:31;23.20;99.90
35796;DHT22;21916;52.428;13.302;2022-08-19T10:46:58;23.10;99.90
35796;DHT22;21916;52.428;13.302;2022-08-19T10:49:24;23.30;99.90
35796;DHT22;21916;52.428;13.302;2022-08-19T10:51:50;23.60;99.90
35796;DHT22;21916;52.428;13.302;2022-08-19T10:54:34;23.50;99.90
35796;DHT22;21916;52.428;13.302;2022-08-19T10:57:19;23.50;99.90
35796;DHT22;21916;52.428;13.302;2022-08-19T10:59:44;23.40;99.90
35796;DHT22;21916;52.428;13.302;2022-08-19T11:02:11;23.20;99.90
35796;DHT22;21916;52.428;13.302;2022-08-19T11:04:39;23.20;99.90
35796;DHT22;21916;52.428;13.302;2022-08-19T11:07:06;23.10;99.90
35796;DHT22;21916;52.428;13.302;2022-08-19T11:09:37;22.90;99.90
35796;DHT22;21916;52.428;13.302;2022-08-19T11:12:04;22.90;99.90
35796;DHT22;21916;52.428;13.302;2022-08-19T11:14:31;22.90;99.90
35796;DHT22;21916;52.428;13.302;2022-08-19T11:16:59;22.90;99.90
35796;DHT22;21916;52.428;13.302;2022-08-19T11:19:25;22.70;99.90
35796;DHT22;21916;52.428;13.302;2022-08-19T11:21:52;22.80;99.90
35796;DHT22;21916;52.428;13.302;2022-08-19T11:24:22;22.80;99.90
35796;DHT22;21916;52.428;13.302;2022-08-19T11:26:50;22.80;99.90
35796;DHT22;21916;52.428;13.302;2022-08-19T11:29:19;22.80;99.90
35796;DHT22;21916;52.428;13.302;2022-08-19T11:31:47;22.70;99.90
35796;DHT22;21916;52.428;13.302;2022-08-19T11:34:22;22.70;99.90
35796;DHT22;21916;52.428;13.302;2022-08-19T11:36:49;22.60;99.90
35796;DHT22;21916;52.428;13.302;2022-08-19T11:39:19;22.60;99.90
35796;DHT22;21916;52.428;13.302;2022-08-19T11:41:46;22.70;99.90
35796;DHT22;21916;52.428;13.302;2022-08-19T11:44:15;22.70;99.90
35796;DHT22;21916;52.428;13.302;2022-08-19T11:46:42;22.70;99.90
35796;DHT22;21916;52.428;13.302;2022-08-19T11:49:16;22.90;99.90
35796;DHT22;21916;52.428;13.302;2022-08-19T11:51:44;22.90;99.90
35796;DHT22;21916;52.428;13.302;2022-08-19T11:54:12;23.00;99.90
35796;DHT22;21916;52.428;13.302;2022-08-19T11:56:39;23.10;99.90
35796;DHT22;21916;52.428;13.302;2022-08-19T11:59:06;23.10;99.90
35796;DHT22;21916;52.428;13.302;2022-08-19T12:01:33;23.30;99.90
35796;DHT22;21916;52.428;13.302;2022-08-19T12:04:00;23.10;99.90
35796;DHT22;21916;52.428;13.302;2022-08-19T12:06:29;23.20;99.90
35796;DHT22;21916;52.428;13.302;2022-08-19T12:08:56;23.20;99.90
35796;DHT22;21916;52.428;13.302;2022-08-19T12:11:23;23.10;99.90
35796;DHT22;21916;52.428;13.302;2022-08-19T12:13:49;23.10;99.90
35796;DHT22;21916;52.428;13.302;2022-08-19T12:16:21;22.90;99.90
35796;DHT22;21916;52.428;13.302;2022-08-19T12:18:48;22.90;99.90
35796;DHT22;21916;52.428;13.302;2022-08-19T12:21:20;22.90;99.90
35796;DHT22;21916;52.428;13.302;2022-08-19T12:23:51;22.90;99.90
35796;DHT22;21916;52.428;13.302;2022-08-19T12:26:20;22.90;99.90
35796;DHT22;21916;52.428;13.302;2022-08-19T12:28:46;22.80;99.90
35796;DHT22;21916;52.428;13.302;2022-08-19T12:31:13;22.80;99.90
35796;DHT22;21916;52.428;13.302;2022-08-19T12:33:40;22.80;99.90
35796;DHT22;21916;52.428;13.302;2022-08-19T12:36:09;22.80;99.90
35796;DHT22;21916;52.428;13.302;2022-08-19T12:38:35;22.80;99.90
35796;DHT22;21916;52.428;13.302;2022-08-19T12:41:02;22.70;99.90
35796;DHT22;21916;52.428;13.302;2022-08-19T12:43:35;22.70;99.90
35796;DHT22;21916;52.428;13.302;2022-08-19T12:46:04;22.60;99.90
35796;DHT22;21916;52.428;13.302;2022-08-19T12:48:32;22.60;99.90
35796;DHT22;21916;52.428;13.302;2022-08-19T12:50:58;22.60;99.90
35796;DHT22;21916;52.428;13.302;2022-08-19T12:53:24;22.70;99.90
35796;DHT22;21916;52.428;13.302;2022-08-19T12:55:57;22.90;99.90
35796;DHT22;21916;52.428;13.302;2022-08-19T12:58:24;23.00;99.90
35796;DHT22;21916;52.428;13.302;2022-08-19T13:00:50;23.10;99.90
35796;DHT22;21916;52.428;13.302;2022-08-19T13:03:16;23.10;99.90
35796;DHT22;21916;52.428;13.302;2022-08-19T13:05:45;23.00;99.90
35796;DHT22;21916;52.428;13.302;2022-08-19T13:08:11;23.00;99.90
35796;DHT22;21916;52.428;13.302;2022-08-19T13:10:37;23.10;99.90
35796;DHT22;21916;52.428;13.302;2022-08-19T13:13:06;23.20;99.90
35796;DHT22;21916;52.428;13.302;2022-08-19T13:15:38;23.20;99.90
35796;DHT22;21916;52.428;13.302;2022-08-19T13:18:09;23.20;99.90
35796;DHT22;21916;52.428;13.302;2022-08-19T13:20:37;23.20;99.90
35796;DHT22;21916;52.428;13.302;2022-08-19T13:23:03;23.30;99.90
35796;DHT22;21916;52.428;13.302;2022-08-19T13:25:30;23.20;99.90
35796;DHT22;21916;52.428;13.302;2022-08-19T13:27:56;23.30;99.90
35796;DHT22;21916;52.428;13.302;2022-08-19T13:30:23;23.30;99.90
35796;DHT22;21916;52.428;13.302;2022-08-19T13:33:08;23.30;99.90
35796;DHT22;21916;52.428;13.302;2022-08-19T13:35:50;23.20;99.90
35796;DHT22;21916;52.428;13.302;2022-08-19T13:38:18;23.10;99.90
35796;DHT22;21916;52.428;13.302;2022-08-19T13:40:46;23.20;99.90
35796;DHT22;21916;52.428;13.302;2022-08-19T13:43:13;23.10;99.90
35796;DHT22;21916;52.428;13.302;2022-08-19T13:45:39;23.10;99.90
35796;DHT22;21916;52.428;13.302;2022-08-19T13:48:08;23.00;99.90
35796;DHT22;21916;52.428;13.302;2022-08-19T13:50:42;23.00;99.90
35796;DHT22;21916;52.428;13.302;2022-08-19T13:53:12;23.00;99.90
35796;DHT22;21916;52.428;13.302;2022-08-19T13:55:42;23.10;99.90
35796;DHT22;21916;52.428;13.302;2022-08-19T13:58:10;23.30;99.90
35796;DHT22;21916;52.428;13.302;2022-08-19T14:00:41;23.50;99.90
35796;DHT22;21916;52.428;13.302;2022-08-19T14:03:08;23.70;99.90
35796;DHT22;21916;52.428;13.302;2022-08-19T14:05:36;23.90;99.90
35796;DHT22;21916;52.428;13.302;2022-08-19T14:08:03;24.00;99.90
35796;DHT22;21916;52.428;13.302;2022-08-19T14:10:30;24.00;99.90
35796;DHT22;21916;52.428;13.302;2022-08-19T14:12:59;24.30;99.90
35796;DHT22;21916;52.428;13.302;2022-08-19T14:15:27;24.70;99.90
35796;DHT22;21916;52.428;13.302;2022-08-19T14:17:53;24.90;99.90
35796;DHT22;21916;52.428;13.302;2022-08-19T14:20:19;24.60;99.90
35796;DHT22;21916;52.428;13.302;2022-08-19T14:22:46;24.20;99.90
35796;DHT22;21916;52.428;13.302;2022-08-19T14:25:17;24.00;99.90
35796;DHT22;21916;52.428;13.302;2022-08-19T14:27:44;23.90;99.90
35796;DHT22;21916;52.428;13.302;2022-08-19T14:30:13;24.00;99.90
35796;DHT22;21916;52.428;13.302;2022-08-19T14:32:40;24.10;99.90
35796;DHT22;21916;52.428;13.302;2022-08-19T14:35:09;24.00;99.90
35796;DHT22;21916;52.428;13.302;2022-08-19T14:37:35;24.00;99.90
35796;DHT22;21916;52.428;13.302;2022-08-19T14:40:03;23.80;99.90
35796;DHT22;21916;52.428;13.302;2022-08-19T14:42:32;23.90;99.90
35796;DHT22;21916;52.428;13.302;2022-08-19T14:44:59;24.00;99.90
35796;DHT22;21916;52.428;13.302;2022-08-19T14:47:26;23.70;99.90
35796;DHT22;21916;52.428;13.302;2022-08-19T14:49:53;23.60;99.90
35796;DHT22;21916;52.428;13.302;2022-08-19T14:52:19;23.50;99.90
35796;DHT22;21916;52.428;13.302;2022-08-19T14:54:46;23.70;99.90
35796;DHT22;21916;52.428;13.302;2022-08-19T14:57:12;23.70;99.90
35796;DHT22;21916;52.428;13.302;2022-08-19T14:59:41;23.50;99.90
35796;DHT22;21916;52.428;13.302;2022-08-19T15:02:11;23.30;99.90
35796;DHT22;21916;52.428;13.302;2022-08-19T15:04:37;23.10;99.90
35796;DHT22;21916;52.428;13.302;2022-08-19T15:07:03;23.20;99.90
35796;DHT22;21916;52.428;13.302;2022-08-19T15:09:33;23.20;99.90
35796;DHT22;21916;52.428;13.302;2022-08-19T15:12:00;23.10;99.90
35796;DHT22;21916;52.428;13.302;2022-08-19T15:14:28;23.10;99.90
35796;DHT22;21916;52.428;13.302;2022-08-19T15:17:03;23.00;99.90
35796;DHT22;21916;52.428;13.302;2022-08-19T15:19:31;23.00;99.90
35796;DHT22;21916;52.428;13.302;2022-08-19T15:21:58;22.90;99.90
35796;DHT22;21916;52.428;13.302;2022-08-19T15:24:25;22.70;99.90
35796;DHT22;21916;52.428;13.302;2022-08-19T15:26:53;22.80;99.90
35796;DHT22;21916;52.428;13.302;2022-08-19T15:29:18;22.70;99.90
35796;DHT22;21916;52.428;13.302;2022-08-19T15:31:44;22.70;99.90
35796;DHT22;21916;52.428;13.302;2022-08-19T15:34:11;22.60;99.90
35796;DHT22;21916;52.428;13.302;2022-08-19T15:36:37;22.50;99.90
35796;DHT22;21916;52.428;13.302;2022-08-19T15:39:03;22.40;99.90
35796;DHT22;21916;52.428;13.302;2022-08-19T15:41:31;22.30;99.90